createdAt,value
2019-05-16T00:00:12.322Z,40.25
2019-05-16T00:02:41.966Z,41.80
2019-05-16T00:05:11.945Z,36.50
2019-05-16T00:07:41.586Z,39.95
2019-05-16T00:10:12.808Z,36.73
2019-05-16T00:12:42.322Z,34.10
2019-05-16T00:15:12.848Z,33.53
2019-05-16T00:17:42.500Z,32.70
2019-05-16T00:20:12.386Z,32.70
2019-05-16T00:22:42.035Z,30.23
2019-05-16T00:25:11.597Z,35.60
2019-05-16T00:27:41.146Z,32.42
2019-05-16T00:30:11.670Z,29.50
2019-05-16T00:32:41.193Z,34.55
2019-05-16T00:35:10.655Z,28.62
2019-05-16T00:37:40.067Z,28.55
2019-05-16T00:40:09.642Z,27.48
2019-05-16T00:42:39.382Z,32.43
2019-05-16T00:45:09.613Z,27.97
2019-05-16T00:47:40.188Z,27.27
2019-05-16T00:50:10.927Z,26.68
2019-05-16T00:52:40.338Z,27.25
2019-05-16T00:55:09.922Z,31.52
2019-05-16T00:57:41.207Z,30.50
2019-05-16T01:00:11.795Z,29.97
2019-05-16T01:02:41.568Z,28.52
2019-05-16T01:05:14.369Z,28.43
2019-05-16T01:07:42.604Z,31.63
2019-05-16T01:10:12.159Z,29.67
2019-05-16T01:12:41.671Z,28.83
2019-05-16T01:15:11.597Z,27.48
2019-05-16T01:17:41.159Z,34.88
2019-05-16T01:20:10.748Z,32.90
2019-05-16T01:22:40.359Z,31.33
2019-05-16T01:25:11.266Z,35.75
2019-05-16T01:27:40.755Z,30.40
2019-05-16T01:30:11.014Z,28.35
2019-05-16T01:32:40.860Z,38.60
2019-05-16T01:35:11.941Z,28.30
2019-05-16T01:37:41.518Z,63.53
2019-05-16T01:40:11.229Z,30.97
2019-05-16T01:42:40.662Z,29.97
2019-05-16T01:45:10.481Z,30.07
2019-05-16T01:47:39.991Z,26.23
2019-05-16T01:50:10.008Z,25.72
2019-05-16T01:52:39.507Z,24.00
2019-05-16T01:55:09.051Z,26.40
2019-05-16T01:57:39.310Z,22.33
2019-05-16T02:00:10.445Z,22.67
2019-05-16T02:02:39.948Z,26.03
2019-05-16T02:05:10.010Z,23.50
2019-05-16T02:07:39.611Z,24.18
2019-05-16T02:10:10.209Z,23.73
2019-05-16T02:12:39.715Z,19.70
2019-05-16T02:15:09.799Z,19.00
2019-05-16T02:17:40.212Z,24.55
2019-05-16T02:20:10.960Z,20.40
2019-05-16T02:22:40.348Z,23.60
2019-05-16T02:25:10.326Z,22.13
2019-05-16T02:27:41.083Z,25.43
2019-05-16T02:30:13.216Z,23.00
2019-05-16T02:32:42.683Z,22.03
2019-05-16T02:35:12.342Z,22.87
2019-05-16T02:37:42.686Z,23.45
2019-05-16T02:40:14.379Z,21.93
2019-05-16T02:42:44.964Z,24.30
2019-05-16T02:45:14.996Z,23.07
2019-05-16T02:47:44.518Z,25.47
2019-05-16T02:50:14.922Z,22.07
2019-05-16T02:52:44.420Z,23.87
2019-05-16T02:55:14.049Z,24.57
2019-05-16T02:57:43.576Z,25.07
2019-05-16T03:00:14.781Z,23.07
2019-05-16T03:02:44.588Z,25.87
2019-05-16T03:05:14.211Z,27.20
2019-05-16T03:07:47.234Z,31.17
2019-05-16T03:10:16.427Z,33.30
2019-05-16T03:12:47.799Z,26.90
2019-05-16T03:15:17.319Z,27.40
2019-05-16T03:17:50.738Z,23.80
2019-05-16T03:20:21.502Z,24.87
2019-05-16T03:22:51.992Z,26.47
2019-05-16T03:25:22.626Z,23.97
2019-05-16T03:27:52.123Z,26.97
2019-05-16T03:30:24.136Z,30.87
2019-05-16T03:32:55.030Z,25.03
2019-05-16T03:35:25.350Z,27.98
2019-05-16T03:38:00.221Z,27.65
2019-05-16T03:40:31.094Z,26.50
2019-05-16T03:43:01.364Z,27.67
2019-05-16T03:45:31.957Z,28.27
2019-05-16T03:48:02.735Z,27.40
2019-05-16T03:50:32.104Z,26.63
2019-05-16T03:53:01.965Z,28.77
2019-05-16T03:55:32.557Z,26.57
2019-05-16T03:58:02.347Z,29.00
2019-05-16T04:00:34.834Z,26.48
2019-05-16T04:03:05.603Z,29.67
2019-05-16T04:05:35.040Z,29.53
2019-05-16T04:08:15.255Z,31.97
2019-05-16T04:10:35.991Z,26.27
2019-05-16T04:13:05.561Z,30.87
2019-05-16T04:15:35.045Z,29.15
2019-05-16T04:18:04.511Z,30.27
2019-05-16T04:20:33.961Z,26.77
2019-05-16T04:23:03.470Z,24.80
2019-05-16T04:25:32.954Z,24.57
2019-05-16T04:28:02.603Z,23.63
2019-05-16T04:30:32.207Z,23.87
2019-05-16T04:33:02.021Z,18.30
2019-05-16T04:35:31.745Z,19.03
2019-05-16T04:38:02.032Z,17.67
2019-05-16T04:40:31.849Z,17.67
2019-05-16T04:43:01.383Z,16.53
2019-05-16T04:45:31.776Z,19.57
2019-05-16T04:48:01.557Z,15.53
2019-05-16T04:50:31.338Z,18.47
2019-05-16T04:53:01.485Z,15.33
2019-05-16T04:55:31.692Z,18.00
2019-05-16T04:58:01.652Z,17.32
2019-05-16T05:00:32.042Z,18.70
2019-05-16T05:03:01.669Z,18.87
2019-05-16T05:05:33.405Z,18.10
2019-05-16T05:08:02.293Z,16.85
2019-05-16T05:10:31.931Z,17.50
2019-05-16T05:13:01.756Z,17.87
2019-05-16T05:15:31.576Z,16.30
2019-05-16T05:18:01.219Z,15.07
2019-05-16T05:20:31.237Z,16.00
2019-05-16T05:23:00.636Z,15.37
2019-05-16T05:25:30.838Z,15.77
2019-05-16T05:28:01.735Z,18.33
2019-05-16T05:30:31.203Z,14.15
2019-05-16T05:33:00.839Z,14.00
2019-05-16T05:35:31.112Z,15.80
2019-05-16T05:38:01.003Z,18.57
2019-05-16T05:40:30.510Z,20.15
2019-05-16T05:43:00.030Z,19.52
2019-05-16T05:45:30.647Z,17.50
2019-05-16T05:48:00.285Z,20.47
2019-05-16T05:50:30.734Z,18.40
2019-05-16T05:53:01.531Z,18.73
2019-05-16T05:55:31.548Z,20.13
2019-05-16T05:58:01.219Z,19.52
2019-05-16T06:00:30.791Z,18.67
2019-05-16T06:03:00.279Z,21.90
2019-05-16T06:05:30.611Z,20.82
2019-05-16T06:08:00.377Z,24.40
2019-05-16T06:10:30.389Z,23.50
2019-05-16T06:13:00.659Z,22.82
2019-05-16T06:15:30.680Z,24.67
2019-05-16T06:18:00.378Z,34.63
2019-05-16T06:20:30.811Z,41.45
2019-05-16T06:23:00.268Z,38.57
2019-05-16T06:25:31.536Z,51.05
2019-05-16T06:28:00.804Z,41.20
2019-05-16T06:30:30.648Z,42.33
2019-05-16T06:33:00.185Z,42.53
2019-05-16T06:35:29.991Z,41.43
2019-05-16T06:38:00.594Z,48.57
2019-05-16T06:40:30.301Z,50.08
2019-05-16T06:43:00.344Z,50.70
2019-05-16T06:45:32.069Z,51.40
2019-05-16T06:48:01.478Z,51.42
2019-05-16T06:50:30.870Z,50.80
2019-05-16T06:53:00.966Z,49.83
2019-05-16T06:55:30.662Z,49.80
2019-05-16T06:58:00.831Z,46.92
2019-05-16T07:00:30.460Z,42.65
2019-05-16T07:03:00.371Z,47.88
2019-05-16T07:05:30.072Z,42.10
2019-05-16T07:07:59.850Z,38.50
2019-05-16T07:10:30.668Z,36.35
2019-05-16T07:13:00.795Z,38.40
2019-05-16T07:15:30.435Z,37.17
2019-05-16T07:17:59.824Z,37.53
2019-05-16T07:20:30.157Z,36.63
2019-05-16T07:23:00.710Z,40.70
2019-05-16T07:25:30.451Z,44.38
2019-05-16T07:28:00.733Z,45.05
2019-05-16T07:30:30.755Z,43.60
2019-05-16T07:33:00.417Z,42.10
2019-05-16T07:35:30.786Z,46.27
2019-05-16T07:38:00.625Z,39.85
2019-05-16T07:40:30.806Z,37.80
2019-05-16T07:43:00.520Z,42.00
2019-05-16T07:45:30.865Z,32.80
2019-05-16T07:48:00.504Z,36.20
2019-05-16T07:50:30.186Z,38.37
2019-05-16T07:53:00.033Z,41.43
2019-05-16T07:55:30.842Z,40.10
2019-05-16T07:58:00.442Z,38.27
2019-05-16T08:00:48.048Z,40.08
2019-05-16T08:03:01.262Z,38.73
2019-05-16T08:05:33.570Z,38.33
2019-05-16T08:08:01.974Z,40.90
2019-05-16T08:10:39.434Z,40.17
2019-05-16T08:13:03.468Z,42.87
2019-05-16T08:15:33.283Z,40.73
2019-05-16T08:18:03.386Z,38.73
2019-05-16T08:20:32.932Z,41.93
2019-05-16T08:23:02.394Z,42.20
2019-05-16T08:25:31.978Z,37.63
2019-05-16T08:28:01.403Z,37.50
2019-05-16T08:30:31.689Z,38.33
2019-05-16T08:33:02.369Z,42.13
2019-05-16T08:35:32.291Z,38.80
2019-05-16T08:38:02.168Z,39.10
2019-05-16T08:40:32.165Z,36.42
2019-05-16T08:43:02.899Z,36.55
2019-05-16T08:45:32.628Z,39.27
2019-05-16T08:48:02.330Z,40.43
2019-05-16T08:50:34.990Z,42.10
2019-05-16T08:53:02.996Z,37.07
2019-05-16T08:55:32.518Z,41.50
2019-05-16T08:58:02.884Z,36.60
2019-05-16T09:00:34.812Z,37.57
2019-05-16T09:03:04.275Z,38.88
2019-05-16T09:05:33.758Z,42.47
2019-05-16T09:08:03.226Z,40.77
2019-05-16T09:11:09.269Z,39.20
2019-05-16T09:13:06.843Z,36.83
2019-05-16T09:15:38.881Z,36.40
2019-05-16T09:18:07.503Z,39.53
2019-05-16T09:20:40.189Z,39.38
2019-05-16T09:23:08.528Z,42.47
2019-05-16T09:25:37.980Z,40.80
2019-05-16T09:28:08.331Z,38.20
2019-05-16T09:30:37.818Z,38.50
2019-05-16T09:33:07.427Z,38.28
2019-05-16T09:35:37.163Z,39.65
2019-05-16T09:38:07.328Z,44.47
2019-05-16T09:40:38.904Z,36.05
2019-05-16T09:43:08.206Z,37.53
2019-05-16T09:45:38.122Z,39.83
2019-05-16T09:48:08.268Z,34.35
2019-05-16T09:50:39.193Z,35.75
2019-05-16T09:53:08.650Z,36.00
2019-05-16T09:55:38.057Z,40.05
2019-05-16T09:58:07.622Z,36.20
2019-05-16T10:00:38.627Z,38.23
2019-05-16T10:03:08.340Z,34.85
2019-05-16T10:05:38.023Z,41.80
2019-05-16T10:08:07.907Z,40.20
2019-05-16T10:10:37.378Z,37.20
2019-05-16T10:13:06.946Z,39.27
2019-05-16T10:15:37.733Z,37.60
2019-05-16T10:18:07.674Z,36.95
2019-05-16T10:20:37.200Z,38.73
2019-05-16T10:23:14.320Z,39.58
2019-05-16T10:25:37.945Z,39.27
2019-05-16T10:28:08.687Z,41.17
2019-05-16T10:30:38.222Z,41.15
2019-05-16T10:33:07.902Z,39.67
2019-05-16T10:35:37.564Z,40.85
2019-05-16T10:38:07.269Z,38.90
2019-05-16T10:40:37.063Z,39.67
2019-05-16T10:43:07.458Z,40.95
2019-05-16T10:45:37.126Z,37.90
2019-05-16T10:48:06.701Z,39.78
2019-05-16T10:50:36.972Z,37.35
2019-05-16T10:53:23.770Z,38.70
2019-05-16T10:55:38.084Z,35.45
2019-05-16T10:58:08.108Z,40.40
2019-05-16T11:01:05.165Z,35.90
2019-05-16T11:03:09.011Z,33.85
2019-05-16T11:05:39.637Z,33.65
2019-05-16T11:08:09.493Z,35.40
2019-05-16T11:10:39.099Z,38.17
2019-05-16T11:13:08.684Z,37.45
2019-05-16T11:15:38.286Z,41.30
2019-05-16T11:18:07.785Z,35.35
2019-05-16T11:20:37.630Z,36.42
2019-05-16T11:23:08.117Z,37.63
2019-05-16T11:25:37.765Z,32.42
2019-05-16T11:28:07.524Z,41.80
2019-05-16T11:30:37.745Z,35.05
2019-05-16T11:33:07.785Z,34.20
2019-05-16T11:35:38.182Z,33.80
2019-05-16T11:38:07.892Z,37.75
2019-05-16T11:40:37.448Z,35.45
2019-05-16T11:43:15.904Z,33.23
2019-05-16T11:45:38.263Z,35.55
2019-05-16T11:48:07.734Z,36.98
2019-05-16T11:50:37.534Z,34.53
2019-05-16T11:53:07.402Z,40.23
2019-05-16T11:55:50.370Z,36.13
2019-05-16T11:58:08.165Z,38.02
2019-05-16T12:00:37.945Z,39.75
2019-05-16T12:03:07.517Z,38.25
2019-05-16T12:05:37.416Z,36.73
2019-05-16T12:08:07.952Z,34.30
2019-05-16T12:10:37.495Z,33.38
2019-05-16T12:13:07.585Z,38.33
2019-05-16T12:15:38.071Z,33.25
2019-05-16T12:18:08.577Z,35.65
2019-05-16T12:20:38.401Z,36.48
2019-05-16T12:23:08.193Z,33.40
2019-05-16T12:25:37.798Z,33.73
2019-05-16T12:28:08.220Z,33.60
2019-05-16T12:30:40.378Z,33.75
2019-05-16T12:33:09.243Z,30.68
2019-05-16T12:35:38.899Z,34.48
2019-05-16T12:38:08.588Z,31.90
2019-05-16T12:40:39.053Z,32.23
2019-05-16T12:43:08.482Z,34.00
2019-05-16T12:45:38.739Z,32.98
2019-05-16T12:48:08.646Z,35.38
2019-05-16T12:50:39.075Z,30.62
2019-05-16T12:53:08.672Z,35.40
2019-05-16T12:55:38.698Z,39.48
2019-05-16T12:58:24.564Z,34.05
2019-05-16T13:00:43.996Z,32.93
2019-05-16T13:03:11.015Z,31.15
2019-05-16T13:05:40.622Z,37.83
2019-05-16T13:08:11.152Z,34.40
2019-05-16T13:10:40.739Z,32.48
2019-05-16T13:13:10.149Z,33.92
2019-05-16T13:15:42.443Z,31.82
2019-05-16T13:18:11.062Z,34.85
2019-05-16T13:20:41.394Z,32.93
2019-05-16T13:23:14.322Z,35.70
2019-05-16T13:25:42.124Z,37.03
2019-05-16T13:28:11.678Z,36.13
2019-05-16T13:30:41.188Z,34.25
2019-05-16T13:33:10.737Z,42.75
2019-05-16T13:35:40.131Z,38.00
2019-05-16T13:38:09.706Z,36.63
2019-05-16T13:40:39.201Z,36.75
2019-05-16T13:43:10.306Z,33.10
2019-05-16T13:45:40.104Z,30.68
2019-05-16T13:48:09.559Z,22.70
2019-05-16T13:50:40.032Z,22.35
2019-05-16T13:53:09.763Z,23.98
2019-05-16T13:55:39.211Z,22.35
2019-05-16T13:58:08.780Z,21.40
2019-05-16T14:00:38.291Z,20.48
2019-05-16T14:03:07.831Z,19.80
2019-05-16T14:05:37.981Z,18.73
2019-05-16T14:08:07.799Z,18.87
2019-05-16T14:10:37.809Z,17.42
2019-05-16T14:13:07.816Z,17.60
2019-05-16T14:15:37.435Z,23.30
2019-05-16T14:18:07.871Z,17.98
2019-05-16T14:20:37.954Z,18.25
2019-05-16T14:23:08.700Z,18.80
2019-05-16T14:25:38.567Z,19.67
2019-05-16T14:28:08.085Z,19.55
2019-05-16T14:30:37.609Z,24.60
2019-05-16T14:33:13.860Z,22.22
2019-05-16T14:35:38.262Z,18.52
2019-05-16T14:38:07.653Z,9.98
2019-05-16T14:40:37.500Z,11.03
2019-05-16T14:43:08.200Z,9.78
2019-05-16T14:45:38.419Z,12.55
2019-05-16T14:48:08.068Z,8.45
2019-05-16T14:50:37.985Z,7.45
2019-05-16T14:53:07.675Z,6.15
2019-05-16T14:55:38.534Z,10.48
2019-05-16T14:58:08.292Z,8.23
2019-05-16T15:00:38.502Z,8.05
2019-05-16T15:03:08.726Z,8.10
2019-05-16T15:05:42.380Z,8.75
2019-05-16T15:08:09.668Z,6.87
2019-05-16T15:10:39.271Z,7.25
2019-05-16T15:13:08.841Z,6.83
2019-05-16T15:15:38.329Z,9.10
2019-05-16T15:18:08.416Z,5.65
2019-05-16T15:20:38.493Z,8.08
2019-05-16T15:23:08.098Z,5.50
2019-05-16T15:25:37.750Z,7.10
2019-05-16T15:28:07.850Z,5.58
2019-05-16T15:30:39.386Z,6.53
2019-05-16T15:33:09.107Z,8.28
2019-05-16T15:35:38.592Z,4.65
2019-05-16T15:38:08.250Z,8.40
2019-05-16T15:40:37.970Z,6.85
2019-05-16T15:43:08.297Z,6.43
2019-05-16T15:45:43.419Z,5.90
2019-05-16T15:48:12.701Z,6.60
2019-05-16T15:50:42.522Z,6.37
2019-05-16T15:53:12.140Z,5.87
2019-05-16T15:55:42.178Z,7.60
2019-05-16T15:58:11.738Z,7.72
2019-05-16T16:00:47.482Z,5.97
2019-05-16T16:03:17.559Z,5.40
2019-05-16T16:05:47.573Z,7.40
2019-05-16T16:08:18.204Z,8.65
2019-05-16T16:10:48.423Z,7.00
2019-05-16T16:13:19.836Z,6.95
2019-05-16T16:15:53.931Z,11.20
2019-05-16T16:18:21.935Z,8.78
2019-05-16T16:20:51.739Z,7.95
2019-05-16T16:23:21.197Z,8.67
2019-05-16T16:25:51.581Z,11.00
2019-05-16T16:28:21.418Z,7.28
2019-05-16T16:30:50.891Z,7.60
2019-05-16T16:33:25.710Z,8.05
2019-05-16T16:35:51.683Z,7.67
2019-05-16T16:38:21.104Z,7.37
2019-05-16T16:40:50.561Z,8.80
2019-05-16T16:43:20.004Z,12.75
2019-05-16T16:45:49.393Z,8.00
2019-05-16T16:48:18.777Z,9.70
2019-05-16T16:50:48.272Z,9.48
2019-05-16T16:53:17.780Z,9.23
2019-05-16T16:55:48.486Z,12.00
2019-05-16T16:58:18.051Z,11.18
2019-05-16T17:00:47.924Z,12.28
2019-05-16T17:03:17.906Z,10.13
2019-05-16T17:05:47.415Z,9.78
2019-05-16T17:08:17.016Z,9.15
2019-05-16T17:10:47.714Z,11.03
2019-05-16T17:13:17.380Z,11.83
2019-05-16T17:15:47.430Z,9.48
2019-05-16T17:18:17.595Z,10.70
2019-05-16T17:20:47.825Z,12.73
2019-05-16T17:23:18.945Z,80.10
2019-05-16T17:25:48.437Z,13.93
2019-05-16T17:28:18.091Z,16.80
2019-05-16T17:30:47.771Z,45.67
2019-05-16T17:33:18.229Z,51.00
2019-05-16T17:35:49.362Z,20.50
2019-05-16T17:38:18.893Z,20.88
2019-05-16T17:40:48.394Z,31.65
2019-05-16T17:43:17.858Z,38.38
2019-05-16T17:45:47.504Z,15.87
2019-05-16T17:48:18.068Z,14.28
2019-05-16T17:50:47.762Z,16.27
2019-05-16T17:53:18.681Z,15.20
2019-05-16T17:55:48.218Z,15.80
2019-05-16T17:58:17.966Z,21.13
2019-05-16T18:00:47.538Z,24.15
2019-05-16T18:03:18.071Z,22.37
2019-05-16T18:05:47.784Z,20.20
2019-05-16T18:08:17.541Z,13.95
2019-05-16T18:10:47.344Z,14.33
2019-05-16T18:13:17.002Z,21.55
2019-05-16T18:15:47.340Z,184.10
2019-05-16T18:18:18.069Z,36.63
2019-05-16T18:20:55.810Z,16.40
2019-05-16T18:23:18.618Z,13.28
2019-05-16T18:25:48.107Z,14.18
2019-05-16T18:28:17.790Z,14.85
2019-05-16T18:30:47.480Z,30.15
2019-05-16T18:33:16.999Z,14.87
2019-05-16T18:35:47.088Z,27.80
2019-05-16T18:38:17.683Z,28.60
2019-05-16T18:40:47.508Z,14.07
2019-05-16T18:43:17.126Z,12.75
2019-05-16T18:45:47.230Z,15.53
2019-05-16T18:48:16.913Z,25.05
2019-05-16T18:50:47.736Z,17.98
2019-05-16T18:53:18.367Z,10.13
2019-05-16T18:55:47.821Z,13.38
2019-05-16T18:58:18.096Z,15.55
2019-05-16T19:00:47.861Z,10.78
2019-05-16T19:03:17.422Z,9.60
2019-05-16T19:05:47.975Z,9.28
2019-05-16T19:08:17.470Z,13.80
2019-05-16T19:10:47.424Z,9.80
2019-05-16T19:13:17.030Z,9.75
2019-05-16T19:15:49.209Z,9.83
2019-05-16T19:18:19.015Z,10.25
2019-05-16T19:20:49.032Z,10.65
2019-05-16T19:23:18.881Z,10.30
2019-05-16T19:25:48.386Z,9.90
2019-05-16T19:28:17.916Z,9.73
2019-05-16T19:30:47.660Z,9.28
2019-05-16T19:33:17.616Z,9.33
2019-05-16T19:35:49.033Z,11.65
2019-05-16T19:38:18.771Z,10.30
2019-05-16T19:40:48.331Z,11.57
2019-05-16T19:43:17.762Z,11.50
2019-05-16T19:45:47.250Z,10.85
2019-05-16T19:48:17.773Z,10.68
2019-05-16T19:50:47.298Z,12.40
2019-05-16T19:53:17.755Z,12.75
2019-05-16T19:55:47.314Z,10.27
2019-05-16T19:58:16.783Z,11.85
2019-05-16T20:00:46.599Z,12.13
2019-05-16T20:03:16.750Z,10.60
2019-05-16T20:05:47.599Z,11.53
2019-05-16T20:08:17.723Z,11.43
2019-05-16T20:10:47.673Z,10.50
2019-05-16T20:13:17.348Z,9.63
2019-05-16T20:15:47.238Z,9.07
2019-05-16T20:18:18.553Z,9.15
2019-05-16T20:20:48.116Z,8.47
2019-05-16T20:23:18.726Z,8.60
2019-05-16T20:25:48.501Z,8.68
2019-05-16T20:28:18.587Z,9.30
2019-05-16T20:30:48.329Z,8.88
2019-05-16T20:33:18.274Z,7.77
2019-05-16T20:35:47.890Z,6.87
2019-05-16T20:38:17.513Z,10.65
2019-05-16T20:40:47.223Z,6.87
2019-05-16T20:43:16.972Z,8.43
2019-05-16T20:45:47.593Z,5.87
2019-05-16T20:48:18.546Z,6.40
2019-05-16T20:50:49.212Z,6.50
2019-05-16T20:53:19.064Z,6.22
2019-05-16T20:55:49.629Z,10.03
2019-05-16T20:58:20.542Z,9.38
2019-05-16T21:00:50.044Z,9.33
2019-05-16T21:03:19.605Z,6.62
2019-05-16T21:05:49.251Z,10.60
2019-05-16T21:08:18.918Z,6.05
2019-05-16T21:10:48.380Z,10.68
2019-05-16T21:13:17.905Z,6.60
2019-05-16T21:15:47.727Z,7.25
2019-05-16T21:18:17.318Z,9.83
2019-05-16T21:20:48.463Z,8.60
2019-05-16T21:23:19.514Z,7.25
2019-05-16T21:25:49.255Z,14.40
2019-05-16T21:28:19.788Z,9.75
2019-05-16T21:30:49.511Z,7.40
2019-05-16T21:33:19.787Z,7.20
2019-05-16T21:35:49.822Z,7.10
2019-05-16T21:38:19.312Z,9.53
2019-05-16T21:40:49.497Z,9.58
2019-05-16T21:43:18.976Z,8.90
2019-05-16T21:45:48.406Z,7.97
2019-05-16T21:48:19.468Z,8.57
2019-05-16T21:50:49.225Z,8.97
2019-05-16T21:53:18.910Z,8.63
2019-05-16T21:55:48.299Z,10.63
2019-05-16T21:58:17.968Z,18.12
2019-05-16T22:00:49.373Z,15.60
2019-05-16T22:03:19.065Z,10.72
2019-05-16T22:05:48.615Z,10.83
2019-05-16T22:08:18.261Z,14.07
2019-05-16T22:10:47.988Z,12.25
2019-05-16T22:13:17.614Z,17.85
2019-05-16T22:15:47.236Z,14.00
2019-05-16T22:18:16.808Z,19.17
2019-05-16T22:20:48.773Z,40.40
2019-05-16T22:23:17.656Z,39.05
2019-05-16T22:25:49.318Z,29.40
2019-05-16T22:28:18.495Z,50.98
2019-05-16T22:30:48.797Z,23.45
2019-05-16T22:33:20.183Z,35.73
2019-05-16T22:35:50.210Z,22.67
2019-05-16T22:38:19.754Z,21.02
2019-05-16T22:41:02.043Z,20.17
2019-05-16T22:43:31.545Z,20.67
2019-05-16T22:46:01.013Z,27.17
2019-05-16T22:48:30.600Z,42.62
2019-05-16T22:51:00.220Z,18.35
2019-05-16T22:53:29.666Z,14.17
2019-05-16T22:55:59.278Z,14.13
2019-05-16T22:58:28.686Z,17.40
2019-05-16T23:00:58.430Z,14.00
2019-05-16T23:03:27.842Z,14.07
2019-05-16T23:05:58.295Z,9.40
2019-05-16T23:08:29.216Z,8.77
2019-05-16T23:10:58.609Z,9.13
2019-05-16T23:13:28.379Z,8.93
2019-05-16T23:15:57.940Z,11.93
2019-05-16T23:18:27.401Z,14.50
2019-05-16T23:20:57.046Z,17.60
2019-05-16T23:23:26.756Z,18.85
2019-05-16T23:25:56.936Z,20.83
2019-05-16T23:28:27.319Z,45.88
2019-05-16T23:30:57.725Z,18.57
2019-05-16T23:33:28.659Z,26.10
2019-05-16T23:35:58.093Z,17.60
2019-05-16T23:38:27.781Z,19.30
2019-05-16T23:40:58.308Z,20.68
2019-05-16T23:43:27.921Z,22.15
2019-05-16T23:45:57.805Z,18.73
2019-05-16T23:48:27.636Z,18.85
2019-05-16T23:50:57.545Z,21.00
2019-05-16T23:53:27.375Z,19.92
2019-05-16T23:55:57.216Z,24.50
2019-05-16T23:58:27.076Z,28.10
